Time;durP1;ratioP1;P1;durP2;ratioP2;P2;SDS_P1;SDS_P2;PMS_P1;PMS_P2;Temp;Humidity;BMP_temperature;BMP_pressure;BME280_temperature;BME280_humidity;BME280_pressure;Samples;Min_cycle;Max_cycle;Signal;HPM_P1;HPM_P2
2023/03/03 00:01:07;;;;;;;24.88;13.30;;;1.60;1.00;;;;;;6165927;23;20215;-77
2023/03/03 00:03:34;;;;;;;23.00;13.75;;;1.60;1.00;;;;;;6167605;23;20629;-78
2023/03/03 00:06:03;;;;;;;31.00;15.00;;;1.40;1.00;;;;;;6165695;23;20239;-79
2023/03/03 00:08:31;;;;;;;23.23;14.50;;;1.40;1.00;;;;;;6162259;23;20217;-78
2023/03/03 00:10:59;;;;;;;28.23;14.43;;;1.30;1.00;;;;;;6165093;23;20257;-77
2023/03/03 00:13:27;;;;;;;27.85;15.82;;;1.30;1.00;;;;;;6164464;23;20207;-78
2023/03/03 00:16:17;;;;;;;28.95;15.60;;;1.30;1.00;;;;;;6164200;23;20297;-78
2023/03/03 00:18:46;;;;;;;26.80;14.30;;;1.40;1.00;;;;;;6160800;23;20214;-79
2023/03/03 00:21:29;;;;;;;28.13;15.35;;;1.40;1.00;;;;;;6166091;23;20214;-77
2023/03/03 00:24:17;;;;;;;29.42;14.43;;;1.50;1.00;;;;;;6164282;23;20218;-78
2023/03/03 00:26:46;;;;;;;26.92;13.88;;;1.50;1.00;;;;;;6161358;23;20215;-79
2023/03/03 00:29:34;;;;;;;23.67;13.05;;;1.50;1.00;;;;;;6164446;23;20223;-77
2023/03/03 00:32:21;;;;;;;23.38;13.77;;;1.50;1.00;;;;;;6162603;23;20211;-78
2023/03/03 00:34:49;;;;;;;23.85;14.32;;;1.40;1.00;;;;;;6161753;23;20272;-78
2023/03/03 00:37:28;;;;;;;22.20;12.68;;;1.40;1.00;;;;;;6161309;23;20207;-77
2023/03/03 00:40:02;;;;;;;27.20;14.25;;;1.40;1.00;;;;;;6162357;23;20218;-77
2023/03/03 00:42:29;;;;;;;25.58;13.65;;;1.40;1.00;;;;;;6137754;23;21137;-77
2023/03/03 00:44:59;;;;;;;25.58;13.90;;;1.50;1.00;;;;;;6162762;23;20215;-78
2023/03/03 00:47:31;;;;;;;24.92;13.95;;;1.50;1.00;;;;;;6160477;23;20211;-77
2023/03/03 00:50:28;;;;;;;24.63;14.32;;;1.50;1.00;;;;;;6163857;23;20289;-77
2023/03/03 00:53:02;;;;;;;25.23;13.55;;;1.50;1.00;;;;;;6162953;23;20211;-78
2023/03/03 00:55:31;;;;;;;25.17;14.70;;;1.40;1.00;;;;;;6162386;23;20210;-79
2023/03/03 00:57:58;;;;;;;24.60;14.30;;;1.40;1.00;;;;;;6166726;23;20259;-77
2023/03/03 01:00:25;;;;;;;23.70;13.82;;;1.40;1.00;;;;;;6165438;23;20221;-78
2023/03/03 01:02:54;;;;;;;22.05;13.13;;;1.40;1.00;;;;;;6165838;23;20851;-77
2023/03/03 01:05:22;;;;;;;25.42;14.25;;;1.40;1.00;;;;;;6175772;23;20211;-77
2023/03/03 01:07:49;;;;;;;27.10;14.77;;;1.40;1.00;;;;;;6171046;23;20225;-79
2023/03/03 01:10:16;;;;;;;26.65;14.90;;;1.40;1.00;;;;;;6164463;23;20936;-78
2023/03/03 01:12:43;;;;;;;27.70;14.80;;;1.50;1.00;;;;;;6165558;23;20219;-77
2023/03/03 01:15:14;;;;;;;25.73;15.38;;;1.50;1.00;;;;;;6164432;23;20214;-77
2023/03/03 01:17:41;;;;;;;25.45;14.77;;;1.30;1.00;;;;;;6160709;23;20217;-77
2023/03/03 01:20:13;;;;;;;27.10;14.80;;;1.30;1.00;;;;;;6164892;23;20868;-77
2023/03/03 01:22:40;;;;;;;28.65;16.25;;;1.40;1.00;;;;;;6160976;23;20246;-77
2023/03/03 01:25:07;;;;;;;29.40;15.68;;;1.40;1.00;;;;;;6163986;23;20207;-78
2023/03/03 01:27:35;;;;;;;24.70;14.27;;;1.50;1.00;;;;;;6160579;23;20274;-78
2023/03/03 01:30:03;;;;;;;26.30;15.18;;;1.50;1.00;;;;;;6162285;23;20218;-77
2023/03/03 01:32:30;;;;;;;29.48;15.95;;;1.60;1.00;;;;;;6160807;23;20226;-75
2023/03/03 01:34:57;;;;;;;29.73;15.93;;;1.60;1.00;;;;;;6158723;23;20221;-78
2023/03/03 01:37:26;;;;;;;31.08;15.90;;;1.60;1.00;;;;;;6160731;23;20274;-77
2023/03/03 01:39:54;;;;;;;29.35;16.20;;;1.60;1.00;;;;;;6161912;23;20237;-77
2023/03/03 01:42:23;;;;;;;30.80;17.48;;;1.60;1.00;;;;;;6161695;23;20211;-78
2023/03/03 01:45:05;;;;;;;27.90;17.42;;;1.60;1.00;;;;;;6163570;23;20214;-79
2023/03/03 01:47:34;;;;;;;29.58;17.45;;;1.60;1.00;;;;;;6160913;23;20222;-77
2023/03/03 01:50:06;;;;;;;27.98;16.73;;;1.60;1.00;;;;;;6163390;23;20298;-77
2023/03/03 01:52:37;;;;;;;31.48;16.30;;;1.70;1.00;;;;;;6137249;23;21037;-77
2023/03/03 01:55:12;;;;;;;30.58;17.58;;;1.60;1.00;;;;;;6162583;23;20282;-77
2023/03/03 01:57:43;;;;;;;29.77;17.00;;;1.70;1.00;;;;;;6163584;23;20266;-78
2023/03/03 02:00:13;;;;;;;32.30;16.83;;;1.70;1.00;;;;;;6162936;23;20237;-78
2023/03/03 02:02:42;;;;;;;25.88;15.00;;;1.70;1.00;;;;;;6157882;23;20305;-77
2023/03/03 02:05:10;;;;;;;27.95;15.77;;;1.60;1.00;;;;;;6160789;23;20211;-76
2023/03/03 02:07:39;;;;;;;27.70;16.63;;;1.50;1.00;;;;;;6159694;23;20629;-76
2023/03/03 02:10:10;;;;;;;29.08;15.68;;;1.50;1.00;;;;;;6161814;23;20291;-79
2023/03/03 02:12:41;;;;;;;29.08;16.75;;;1.50;1.00;;;;;;6160420;23;20677;-78
2023/03/03 02:15:20;;;;;;;26.85;15.27;;;1.50;1.00;;;;;;6159902;23;20269;-78
2023/03/03 02:17:50;;;;;;;28.90;17.23;;;1.50;1.00;;;;;;6160169;23;20214;-78
2023/03/03 02:20:28;;;;;;;31.80;17.88;;;1.50;1.00;;;;;;6161838;23;20967;-77
2023/03/03 02:23:05;;;;;;;28.92;17.30;;;1.50;1.00;;;;;;6160068;23;20950;-76
2023/03/03 02:25:40;;;;;;;33.10;17.45;;;1.60;1.00;;;;;;6159441;23;20218;-77
2023/03/03 02:28:09;;;;;;;28.92;15.68;;;1.50;1.00;;;;;;6162902;23;20222;-77
2023/03/03 02:30:39;;;;;;;31.63;16.58;;;1.60;1.00;;;;;;6160268;23;20210;-77
2023/03/03 02:33:06;;;;;;;30.63;17.90;;;1.60;1.00;;;;;;6162214;23;20215;-77
2023/03/03 02:35:35;;;;;;;32.35;18.73;;;1.70;1.00;;;;;;6161533;23;20622;-76
2023/03/03 02:38:14;;;;;;;31.65;17.88;;;1.80;1.00;;;;;;6162254;23;20222;-78
2023/03/03 02:40:49;;;;;;;30.00;17.55;;;1.80;1.00;;;;;;6160343;23;20215;-78
2023/03/03 02:43:20;;;;;;;34.17;17.83;;;1.80;1.00;;;;;;6164098;23;20218;-78
2023/03/03 02:45:48;;;;;;;28.98;17.80;;;1.90;1.00;;;;;;6163341;23;20218;-77
2023/03/03 02:48:15;;;;;;;30.92;18.27;;;1.90;1.00;;;;;;6162722;23;20222;-77
2023/03/03 02:50:41;;;;;;;30.65;18.33;;;1.80;1.00;;;;;;6162192;23;20278;-78
2023/03/03 02:53:09;;;;;;;33.15;18.17;;;1.80;1.00;;;;;;6161519;23;20229;-77
2023/03/03 02:55:35;;;;;;;30.50;17.70;;;1.80;1.00;;;;;;6161758;23;20242;-78
2023/03/03 02:58:02;;;;;;;34.53;19.10;;;1.80;1.00;;;;;;6161373;23;20223;-76
2023/03/03 03:00:31;;;;;;;37.42;20.80;;;1.80;1.00;;;;;;6161929;23;20226;-76
2023/03/03 03:02:58;;;;;;;39.90;22.75;;;1.80;1.00;;;;;;6157202;23;20260;-77
2023/03/03 03:05:25;;;;;;;36.70;21.27;;;1.80;1.00;;;;;;6160470;23;20218;-76
2023/03/03 03:07:52;;;;;;;35.80;21.77;;;1.80;1.00;;;;;;6160323;23;20250;-78
2023/03/03 03:10:19;;;;;;;34.40;20.33;;;1.70;1.00;;;;;;6162101;23;20218;-76
2023/03/03 03:12:46;;;;;;;37.60;22.23;;;1.70;1.00;;;;;;6160323;23;20274;-78
2023/03/03 03:15:14;;;;;;;35.00;21.88;;;1.70;1.00;;;;;;6162729;23;20214;-78
2023/03/03 03:17:43;;;;;;;34.95;22.02;;;1.70;1.00;;;;;;6160069;23;20218;-77
2023/03/03 03:20:11;;;;;;;36.90;22.55;;;1.70;1.00;;;;;;6134612;23;20221;-76
2023/03/03 03:22:39;;;;;;;35.88;20.38;;;1.70;1.00;;;;;;6157577;23;20215;-77
2023/03/03 03:25:07;;;;;;;36.15;21.23;;;1.70;1.00;;;;;;6162340;23;20218;-76
2023/03/03 03:27:34;;;;;;;33.72;21.13;;;1.70;1.00;;;;;;6158652;23;20225;-77
2023/03/03 03:30:01;;;;;;;39.95;21.90;;;1.60;1.00;;;;;;6160906;23;20278;-78
2023/03/03 03:32:27;;;;;;;35.83;21.30;;;1.60;1.00;;;;;;6157380;23;20266;-76
2023/03/03 03:34:56;;;;;;;37.90;21.88;;;1.60;1.00;;;;;;6162264;23;20222;-78
2023/03/03 03:37:23;;;;;;;32.38;19.67;;;1.60;1.00;;;;;;6160865;23;20290;-76
2023/03/03 03:39:51;;;;;;;32.10;20.17;;;1.60;1.00;;;;;;6163886;23;20214;-77
2023/03/03 03:42:18;;;;;;;43.47;24.83;;;1.70;1.00;;;;;;6160800;23;21108;-78
2023/03/03 03:44:44;;;;;;;34.58;18.75;;;1.70;1.00;;;;;;6150121;23;20243;-77
2023/03/03 03:47:12;;;;;;;31.80;18.92;;;1.70;1.00;;;;;;6162642;23;20222;-76
2023/03/03 03:49:39;;;;;;;32.63;18.75;;;1.80;1.00;;;;;;6162917;23;20245;-76
2023/03/03 03:52:07;;;;;;;31.92;17.92;;;1.70;1.00;;;;;;6161910;23;20211;-78
2023/03/03 03:54:34;;;;;;;30.85;17.52;;;1.70;1.00;;;;;;6163461;23;20273;-77
2023/03/03 03:57:02;;;;;;;32.40;20.08;;;1.70;1.00;;;;;;6163680;23;20225;-76
2023/03/03 03:59:29;;;;;;;32.97;18.98;;;1.70;1.00;;;;;;6163711;23;20215;-75
2023/03/03 04:01:55;;;;;;;33.45;18.58;;;1.60;1.00;;;;;;6161529;23;20247;-76
2023/03/03 04:04:23;;;;;;;35.05;19.48;;;1.60;1.00;;;;;;6161114;23;20234;-78
2023/03/03 04:06:50;;;;;;;36.58;19.50;;;1.50;1.00;;;;;;6162331;23;20245;-77
2023/03/03 04:09:18;;;;;;;31.58;18.05;;;1.50;1.00;;;;;;6162472;23;20221;-78
2023/03/03 04:11:45;;;;;;;33.72;18.40;;;1.50;1.00;;;;;;6161585;23;20902;-78
2023/03/03 04:14:12;;;;;;;30.50;17.85;;;1.40;1.00;;;;;;6162848;23;20526;-76
2023/03/03 04:16:39;;;;;;;29.95;17.50;;;1.40;1.00;;;;;;6130563;23;20697;-76
2023/03/03 04:19:06;;;;;;;28.58;17.42;;;1.30;1.00;;;;;;6155634;23;20638;-77
2023/03/03 04:21:33;;;;;;;32.08;18.40;;;1.40;1.00;;;;;;6161741;23;20249;-77
2023/03/03 04:24:00;;;;;;;30.35;17.27;;;1.30;1.00;;;;;;6162492;23;20286;-78
2023/03/03 04:26:29;;;;;;;29.17;17.23;;;1.30;1.00;;;;;;6161199;23;20740;-77
2023/03/03 04:28:57;;;;;;;29.35;17.50;;;1.30;1.00;;;;;;6161358;23;20707;-77
2023/03/03 04:31:24;;;;;;;31.42;17.17;;;1.30;1.00;;;;;;6163069;23;20241;-76
2023/03/03 04:33:52;;;;;;;28.33;17.00;;;1.30;1.00;;;;;;6158875;23;20222;-78
2023/03/03 04:36:19;;;;;;;29.75;16.55;;;1.30;1.00;;;;;;6161454;23;20226;-77
2023/03/03 04:38:47;;;;;;;31.60;16.38;;;1.20;1.00;;;;;;6160456;23;20207;-78
2023/03/03 04:41:15;;;;;;;34.05;17.42;;;1.20;1.00;;;;;;6161741;23;20668;-77
2023/03/03 04:43:43;;;;;;;27.95;16.35;;;1.20;1.00;;;;;;6159427;23;20215;-77
2023/03/03 04:46:10;;;;;;;33.50;18.90;;;1.30;1.00;;;;;;6160972;23;20239;-78
2023/03/03 04:48:38;;;;;;;35.60;21.15;;;1.40;1.00;;;;;;6161553;23;20281;-78
2023/03/03 04:51:05;;;;;;;34.47;20.63;;;1.40;1.00;;;;;;6160519;23;21034;-77
2023/03/03 04:53:35;;;;;;;36.10;20.05;;;1.40;1.00;;;;;;6161025;23;20215;-77
2023/03/03 04:56:02;;;;;;;37.85;21.48;;;1.40;1.00;;;;;;6162456;23;20256;-77
2023/03/03 04:58:29;;;;;;;38.28;21.55;;;1.40;1.00;;;;;;6160729;23;20314;-77
2023/03/03 05:00:58;;;;;;;34.70;20.88;;;1.40;1.00;;;;;;6135057;23;20728;-78
2023/03/03 05:03:29;;;;;;;41.03;22.67;;;1.30;1.00;;;;;;6164312;23;20218;-77
2023/03/03 05:05:57;;;;;;;33.25;19.58;;;1.20;1.00;;;;;;6138780;23;20239;-75
2023/03/03 05:08:24;;;;;;;36.90;20.73;;;1.20;1.00;;;;;;6162231;23;20270;-77
2023/03/03 05:10:52;;;;;;;36.70;21.27;;;1.10;1.00;;;;;;6160703;23;20298;-76
2023/03/03 05:13:20;;;;;;;38.00;20.88;;;1.00;1.00;;;;;;6161633;23;20294;-76
2023/03/03 05:15:50;;;;;;;38.72;22.42;;;1.00;1.00;;;;;;6161841;23;20298;-77
2023/03/03 05:18:18;;;;;;;35.65;19.30;;;1.10;1.00;;;;;;6164248;23;20215;-76
2023/03/03 05:20:45;;;;;;;33.65;19.40;;;1.00;1.00;;;;;;6159673;23;20285;-77
2023/03/03 05:23:12;;;;;;;35.90;19.95;;;1.00;1.00;;;;;;6160313;23;20297;-76
2023/03/03 05:25:41;;;;;;;35.67;20.45;;;0.90;1.00;;;;;;6157721;23;20369;-75
2023/03/03 05:28:08;;;;;;;31.58;17.48;;;0.90;1.00;;;;;;6158810;23;20602;-77
2023/03/03 05:30:38;;;;;;;33.97;19.38;;;0.80;1.00;;;;;;6161094;23;20214;-79
2023/03/03 05:33:08;;;;;;;40.65;21.77;;;0.80;1.00;;;;;;6135876;23;20273;-77
2023/03/03 05:35:36;;;;;;;35.53;19.83;;;0.80;1.00;;;;;;6158316;23;20199;-75
2023/03/03 05:38:04;;;;;;;39.42;19.33;;;0.80;1.00;;;;;;6160343;23;20214;-77
2023/03/03 05:40:31;;;;;;;36.38;20.90;;;0.80;1.00;;;;;;6158426;23;20293;-76
2023/03/03 05:42:58;;;;;;;37.38;19.75;;;0.80;1.00;;;;;;6158978;23;20268;-77
2023/03/03 05:45:27;;;;;;;40.33;22.67;;;0.80;1.00;;;;;;6164491;23;20258;-76
2023/03/03 05:47:54;;;;;;;42.58;23.42;;;0.80;1.00;;;;;;6165647;23;20806;-78
2023/03/03 05:50:24;;;;;;;41.85;22.23;;;0.90;1.00;;;;;;6169874;23;20214;-77
2023/03/03 05:52:53;;;;;;;42.00;22.70;;;0.90;1.00;;;;;;6175982;23;20210;-78
2023/03/03 05:55:20;;;;;;;44.60;23.40;;;1.00;1.00;;;;;;6174367;23;20218;-76
2023/03/03 05:57:48;;;;;;;38.92;21.83;;;1.00;1.00;;;;;;6175388;23;20228;-77
2023/03/03 06:00:19;;;;;;;41.75;22.27;;;1.00;1.00;;;;;;6139704;23;20219;-77
2023/03/03 06:02:49;;;;;;;39.60;21.35;;;1.00;1.00;;;;;;6174521;23;20217;-78
2023/03/03 06:05:16;;;;;;;45.50;22.25;;;1.10;1.00;;;;;;6171241;23;20302;-77
2023/03/03 06:07:43;;;;;;;46.95;22.92;;;1.30;1.00;;;;;;6173035;23;20218;-77
2023/03/03 06:10:12;;;;;;;45.65;25.67;;;1.30;1.00;;;;;;6174950;23;20234;-78
2023/03/03 06:12:40;;;;;;;43.75;23.38;;;1.30;1.00;;;;;;6176150;23;20225;-75
2023/03/03 06:15:09;;;;;;;41.17;24.13;;;1.30;1.00;;;;;;6162973;23;20222;-77
2023/03/03 06:17:36;;;;;;;42.83;23.88;;;1.30;1.00;;;;;;6154100;23;20235;-77
2023/03/03 06:20:03;;;;;;;47.95;26.20;;;1.30;1.00;;;;;;6170934;23;20219;-77
2023/03/03 06:22:31;;;;;;;43.38;23.23;;;1.30;1.00;;;;;;6163641;23;20218;-76
2023/03/03 06:24:59;;;;;;;40.05;23.13;;;1.30;1.00;;;;;;6168588;23;20207;-76
2023/03/03 06:27:28;;;;;;;39.95;22.25;;;1.20;1.00;;;;;;6167583;23;20242;-78
2023/03/03 06:29:55;;;;;;;46.22;24.67;;;1.20;1.00;;;;;;6169338;23;20265;-77
2023/03/03 06:32:22;;;;;;;41.05;23.13;;;1.30;1.00;;;;;;6169332;23;20211;-76
2023/03/03 06:34:49;;;;;;;52.20;27.05;;;1.30;1.00;;;;;;6171534;23;20318;-76
2023/03/03 06:37:19;;;;;;;47.33;24.83;;;1.30;1.00;;;;;;6175409;23;20210;-75
2023/03/03 06:39:50;;;;;;;42.55;23.95;;;1.30;1.00;;;;;;6172557;23;20291;-75
2023/03/03 06:42:19;;;;;;;41.47;23.70;;;1.20;1.00;;;;;;6169181;23;20211;-77
2023/03/03 06:44:48;;;;;;;41.33;21.80;;;1.20;1.00;;;;;;6171615;23;20214;-78
2023/03/03 06:47:15;;;;;;;39.35;21.15;;;1.20;1.00;;;;;;6174538;23;20213;-78
2023/03/03 06:49:44;;;;;;;34.92;20.38;;;1.10;1.00;;;;;;6142423;23;20310;-77
2023/03/03 06:52:13;;;;;;;40.40;19.70;;;1.00;1.00;;;;;;6172398;23;20199;-77
2023/03/03 06:54:42;;;;;;;39.17;23.23;;;1.00;1.00;;;;;;6172585;23;20235;-77
2023/03/03 06:57:25;;;;;;;37.15;20.48;;;1.00;1.00;;;;;;6173466;23;20198;-76
2023/03/03 06:59:58;;;;;;;38.78;21.48;;;1.00;1.00;;;;;;6113045;23;20210;-77
2023/03/03 07:02:26;;;;;;;40.65;21.38;;;1.00;1.00;;;;;;6165968;23;20211;-77
2023/03/03 07:04:55;;;;;;;43.00;22.13;;;1.00;1.00;;;;;;6171403;23;20218;-76
2023/03/03 07:07:26;;;;;;;40.88;20.65;;;1.00;1.00;;;;;;6170754;23;20238;-77
2023/03/03 07:09:57;;;;;;;33.22;18.85;;;1.00;1.00;;;;;;6177338;23;20221;-77
2023/03/03 07:12:27;;;;;;;34.30;18.00;;;0.90;1.00;;;;;;6171594;23;20305;-77
2023/03/03 07:15:01;;;;;;;32.80;18.58;;;0.90;1.00;;;;;;6168135;23;20251;-75
2023/03/03 07:17:31;;;;;;;39.38;19.75;;;0.90;1.00;;;;;;6167135;23;20210;-76
2023/03/03 07:20:02;;;;;;;34.45;19.20;;;0.90;1.00;;;;;;6172587;23;20218;-77
2023/03/03 07:22:37;;;;;;;36.75;20.58;;;1.00;1.00;;;;;;6175471;23;20222;-78
2023/03/03 07:25:21;;;;;;;39.47;21.40;;;1.00;1.00;;;;;;6176444;23;20214;-76
2023/03/03 07:27:48;;;;;;;43.25;21.42;;;1.10;1.00;;;;;;6172939;23;20221;-76
2023/03/03 07:30:26;;;;;;;44.63;25.10;;;1.10;1.00;;;;;;6169941;23;20215;-76
2023/03/03 07:32:59;;;;;;;44.15;24.65;;;1.10;1.00;;;;;;6168635;23;20246;-75
2023/03/03 07:35:37;;;;;;;46.35;23.67;;;1.00;1.00;;;;;;6167822;23;20226;-77
2023/03/03 07:38:16;;;;;;;46.83;26.20;;;0.90;1.00;;;;;;6177008;23;20221;-78
2023/03/03 07:40:48;;;;;;;42.35;24.00;;;0.90;1.00;;;;;;6175199;23;20214;-76
2023/03/03 07:43:31;;;;;;;45.50;24.75;;;0.90;1.00;;;;;;6172316;23;20210;-77
2023/03/03 07:46:04;;;;;;;46.42;24.15;;;0.90;1.00;;;;;;6172283;23;20218;-76
2023/03/03 07:48:36;;;;;;;45.22;25.08;;;1.00;1.00;;;;;;6162627;23;20214;-76
2023/03/03 07:51:12;;;;;;;44.78;24.60;;;1.00;1.00;;;;;;6162354;23;20211;-74
2023/03/03 07:53:39;;;;;;;43.65;23.92;;;1.00;1.00;;;;;;6161381;23;20274;-73
2023/03/03 07:56:17;;;;;;;44.10;25.20;;;1.10;1.00;;;;;;6162583;23;20202;-74
2023/03/03 07:58:47;;;;;;;50.45;25.52;;;1.20;1.00;;;;;;6162118;23;20215;-76
2023/03/03 08:01:39;;;;;;;43.13;23.77;;;1.20;1.00;;;;;;6161951;23;20225;-78
2023/03/03 08:04:16;;;;;;;47.17;24.65;;;1.30;1.00;;;;;;6171904;23;20273;-78
2023/03/03 08:06:49;;;;;;;48.75;25.75;;;1.30;1.00;;;;;;6170433;23;20207;-78
2023/03/03 08:09:44;;;;;;;42.50;23.17;;;1.40;1.00;;;;;;6173488;23;20217;-77
2023/03/03 08:12:40;;;;;;;41.92;22.35;;;1.30;1.00;;;;;;6109715;23;20207;-78
2023/03/03 08:15:28;;;;;;;43.85;22.55;;;1.30;1.00;;;;;;6175525;23;20219;-78
2023/03/03 08:17:56;;;;;;;46.10;23.80;;;1.40;1.00;;;;;;6173973;23;21136;-76
2023/03/03 08:20:46;;;;;;;42.22;22.52;;;1.40;1.00;;;;;;6169539;23;20269;-76
2023/03/03 08:23:14;;;;;;;47.13;24.10;;;1.50;1.00;;;;;;6174196;23;20951;-76
2023/03/03 08:25:42;;;;;;;51.38;23.95;;;1.50;1.00;;;;;;6172452;23;20215;-78
2023/03/03 08:28:10;;;;;;;47.50;24.98;;;1.60;1.00;;;;;;6175976;23;20203;-77
2023/03/03 08:30:37;;;;;;;43.35;24.35;;;1.70;1.00;;;;;;6176018;23;21019;-77
2023/03/03 08:33:05;;;;;;;43.10;20.98;;;1.80;1.00;;;;;;6176224;23;20219;-77
2023/03/03 08:35:32;;;;;;;43.53;22.55;;;1.70;1.00;;;;;;6174922;23;20979;-76
2023/03/03 08:38:00;;;;;;;45.53;22.27;;;1.80;1.00;;;;;;6176960;23;20259;-76
2023/03/03 08:40:27;;;;;;;46.05;24.48;;;1.90;1.00;;;;;;6173383;23;20225;-77
2023/03/03 08:42:54;;;;;;;48.83;26.20;;;2.00;1.00;;;;;;6174066;23;20206;-76
2023/03/03 08:45:21;;;;;;;46.28;24.95;;;2.00;1.00;;;;;;6173108;23;21187;-75
2023/03/03 08:47:49;;;;;;;56.25;27.45;;;2.10;1.00;;;;;;6172337;23;20207;-77
2023/03/03 08:50:17;;;;;;;47.40;26.95;;;2.10;1.00;;;;;;6171791;23;20226;-77
2023/03/03 08:52:46;;;;;;;53.78;28.10;;;2.10;1.00;;;;;;6172962;23;20242;-77
2023/03/03 08:55:13;;;;;;;49.47;27.00;;;2.10;1.00;;;;;;6172058;23;20222;-77
2023/03/03 08:57:41;;;;;;;50.83;27.92;;;2.10;1.00;;;;;;6175044;23;20227;-78
2023/03/03 09:00:10;;;;;;;45.08;24.25;;;2.20;1.00;;;;;;6166619;23;20938;-76
2023/03/03 09:02:38;;;;;;;43.65;22.27;;;2.20;1.00;;;;;;6164054;23;20290;-78
2023/03/03 09:05:08;;;;;;;44.25;24.02;;;2.30;1.00;;;;;;6164617;23;20273;-76
2023/03/03 09:07:36;;;;;;;42.60;20.42;;;2.30;1.00;;;;;;6166513;23;20206;-78
2023/03/03 09:10:04;;;;;;;38.88;20.70;;;2.40;1.00;;;;;;6169407;23;20241;-77
2023/03/03 09:12:35;;;;;;;39.17;20.77;;;2.40;1.00;;;;;;6168884;23;20607;-78
2023/03/03 09:15:13;;;;;;;39.95;21.10;;;2.50;1.00;;;;;;6168028;22;20952;-78
2023/03/03 09:17:42;;;;;;;39.30;22.48;;;2.60;1.00;;;;;;6172312;23;20206;-78
2023/03/03 09:20:40;;;;;;;41.55;21.55;;;2.60;1.00;;;;;;6173489;23;20232;-77
2023/03/03 09:23:41;;;;;;;44.03;24.33;;;2.70;1.00;;;;;;6171697;23;20211;-78
2023/03/03 09:26:30;;;;;;;45.05;25.17;;;2.90;1.00;;;;;;6173910;23;20212;-77
2023/03/03 09:29:20;;;;;;;36.83;21.52;;;2.90;1.00;;;;;;6174503;23;20429;-77
2023/03/03 09:31:51;;;;;;;38.95;21.15;;;2.90;1.00;;;;;;6174910;23;20281;-79
2023/03/03 09:34:22;;;;;;;44.35;22.00;;;2.90;1.00;;;;;;6173672;23;20219;-76
2023/03/03 09:36:50;;;;;;;40.97;24.00;;;3.00;1.00;;;;;;6170449;23;20210;-79
2023/03/03 09:39:22;;;;;;;47.95;24.00;;;3.00;1.00;;;;;;6169876;23;20230;-77
2023/03/03 09:42:37;;;;;;;43.38;25.38;;;2.90;1.00;;;;;;6160622;23;20222;-77
2023/03/03 09:45:43;;;;;;;41.50;22.98;;;3.00;1.00;;;;;;6167453;23;20669;-80
2023/03/03 09:48:55;;;;;;;47.80;25.02;;;3.00;1.00;;;;;;6136085;23;20211;-78
2023/03/03 09:52:02;;;;;;;35.38;20.67;;;3.20;1.00;;;;;;6134634;23;20223;-77
2023/03/03 09:54:43;;;;;;;34.95;21.00;;;3.20;1.00;;;;;;6098399;23;20211;-78
2023/03/03 09:57:16;;;;;;;42.03;24.67;;;3.20;1.00;;;;;;6168687;23;20218;-78
2023/03/03 09:59:55;;;;;;;35.30;21.95;;;3.50;1.00;;;;;;6160878;23;20258;-78
2023/03/03 10:02:38;;;;;;;38.13;22.30;;;3.70;1.00;;;;;;6160789;23;20295;-81
2023/03/03 10:05:34;;;;;;;37.90;21.08;;;3.90;1.00;;;;;;6162522;23;20327;-77
2023/03/03 10:08:35;;;;;;;36.20;21.90;;;3.90;1.00;;;;;;6166169;23;20210;-78
2023/03/03 10:11:13;;;;;;;34.58;20.50;;;4.00;1.00;;;;;;6153930;23;20928;-78
2023/03/03 10:14:00;;;;;;;39.90;23.98;;;3.90;1.00;;;;;;6159654;23;20262;-79
2023/03/03 10:16:57;;;;;;;33.60;22.77;;;3.90;1.00;;;;;;6161552;23;20919;-79
2023/03/03 10:19:38;;;;;;;35.47;22.90;;;3.90;1.00;;;;;;6161747;23;20321;-81
2023/03/03 10:22:19;;;;;;;43.75;31.17;;;3.90;1.00;;;;;;6168688;23;20214;-81
2023/03/03 10:24:59;;;;;;;37.17;23.40;;;3.90;1.00;;;;;;6162380;23;20499;-79
2023/03/03 10:27:41;;;;;;;46.03;24.58;;;3.80;1.00;;;;;;6166471;23;20214;-80
2023/03/03 10:30:16;;;;;;;35.42;22.63;;;4.00;1.00;;;;;;6164511;23;20218;-79
2023/03/03 10:32:50;;;;;;;39.90;23.48;;;4.00;1.00;;;;;;6162574;23;20457;-78
2023/03/03 10:35:39;;;;;;;40.13;25.08;;;4.20;1.00;;;;;;6163070;23;20206;-79
2023/03/03 10:38:23;;;;;;;34.78;21.90;;;4.40;1.00;;;;;;6166353;23;20245;-79
2023/03/03 10:40:58;;;;;;;36.00;19.67;;;4.50;1.00;;;;;;6168183;23;20234;-78
2023/03/03 10:43:45;;;;;;;41.08;21.55;;;4.40;1.00;;;;;;6166809;23;20210;-78
2023/03/03 10:46:27;;;;;;;32.40;20.00;;;4.30;1.00;;;;;;6169208;23;20203;-79
2023/03/03 10:49:07;;;;;;;35.00;22.25;;;4.50;1.00;;;;;;6165331;23;20978;-79
2023/03/03 10:51:44;;;;;;;34.80;21.75;;;4.60;1.00;;;;;;6160523;23;20356;-80
2023/03/03 10:54:29;;;;;;;38.95;21.75;;;4.60;1.00;;;;;;6164535;23;20214;-79
2023/03/03 10:57:02;;;;;;;38.35;23.70;;;4.50;1.00;;;;;;6124697;23;20271;-78
2023/03/03 10:59:44;;;;;;;41.40;24.27;;;4.50;1.00;;;;;;6160669;23;20214;-79
2023/03/03 11:02:22;;;;;;;38.92;23.95;;;4.50;1.00;;;;;;6162320;23;20214;-79
2023/03/03 11:05:04;;;;;;;34.05;24.73;;;4.60;1.00;;;;;;6159953;23;20262;-78
2023/03/03 11:07:39;;;;;;;39.03;23.30;;;4.60;1.00;;;;;;6165510;23;20984;-77
2023/03/03 11:10:25;;;;;;;33.20;22.55;;;4.70;1.00;;;;;;6167286;23;20688;-79
2023/03/03 11:13:02;;;;;;;35.20;22.48;;;4.90;1.00;;;;;;6167972;23;20213;-79
2023/03/03 11:15:58;;;;;;;30.40;19.67;;;5.00;1.00;;;;;;6166079;23;20942;-80
2023/03/03 11:18:35;;;;;;;40.30;30.30;;;5.20;1.00;;;;;;6164748;23;20663;-80
2023/03/03 11:21:13;;;;;;;35.72;21.75;;;5.20;1.00;;;;;;6163532;23;20219;-79
2023/03/03 11:23:58;;;;;;;33.13;22.73;;;5.20;1.00;;;;;;6164083;23;20222;-79
2023/03/03 11:26:53;;;;;;;37.50;23.67;;;5.10;1.00;;;;;;6162943;23;20293;-78
2023/03/03 11:29:32;;;;;;;38.60;25.13;;;4.90;1.00;;;;;;6136399;23;20219;-79
2023/03/03 11:32:13;;;;;;;36.20;22.15;;;4.80;1.00;;;;;;6152836;23;20329;-77
2023/03/03 11:34:56;;;;;;;34.42;22.45;;;4.80;1.00;;;;;;6171351;23;20214;-78
2023/03/03 11:37:46;;;;;;;41.88;21.85;;;4.80;1.00;;;;;;6169657;23;20211;-77
2023/03/03 11:40:18;;;;;;;38.58;22.58;;;4.80;1.00;;;;;;6155012;23;20219;-76
2023/03/03 11:42:56;;;;;;;40.05;20.42;;;4.80;1.00;;;;;;6152749;23;20301;-78
2023/03/03 11:45:28;;;;;;;36.78;21.50;;;4.90;1.00;;;;;;6130109;23;20215;-77
2023/03/03 11:48:04;;;;;;;34.30;21.08;;;5.00;1.00;;;;;;6145940;23;20214;-76
2023/03/03 11:50:35;;;;;;;30.40;19.75;;;4.90;1.00;;;;;;6153191;23;20250;-76
2023/03/03 11:53:19;;;;;;;34.45;20.27;;;5.00;1.00;;;;;;6156633;23;20211;-76
2023/03/03 11:55:52;;;;;;;39.35;22.60;;;5.00;1.00;;;;;;6153259;23;20214;-76
2023/03/03 11:58:24;;;;;;;35.22;22.48;;;5.00;1.00;;;;;;6155430;23;20234;-77
2023/03/03 12:00:57;;;;;;;35.67;21.70;;;5.00;1.00;;;;;;6155152;23;20227;-75
2023/03/03 12:03:39;;;;;;;39.85;25.85;;;4.90;1.00;;;;;;6155046;23;20254;-78
2023/03/03 12:06:21;;;;;;;43.65;26.48;;;5.00;1.00;;;;;;6159250;23;20677;-77
2023/03/03 12:09:10;;;;;;;37.65;25.67;;;5.00;1.00;;;;;;6157690;23;20257;-77
2023/03/03 12:11:47;;;;;;;44.65;28.85;;;4.90;1.00;;;;;;6158558;23;20899;-77
2023/03/03 12:14:28;;;;;;;47.63;28.85;;;5.00;1.00;;;;;;6157540;23;20214;-78
2023/03/03 12:17:00;;;;;;;46.03;29.80;;;5.10;1.00;;;;;;6123629;23;20842;-77
2023/03/03 12:19:56;;;;;;;43.75;29.45;;;5.30;1.00;;;;;;6158503;23;20215;-77
2023/03/03 12:22:35;;;;;;;41.05;26.73;;;5.50;1.00;;;;;;6155683;23;20227;-76
2023/03/03 12:25:24;;;;;;;48.88;27.58;;;5.40;1.00;;;;;;6123501;23;20221;-76
2023/03/03 12:28:00;;;;;;;50.55;29.73;;;5.50;1.00;;;;;;6155749;23;20225;-77
2023/03/03 12:30:41;;;;;;;52.55;27.70;;;5.50;1.00;;;;;;6156371;23;21272;-76
2023/03/03 12:33:21;;;;;;;45.65;26.80;;;5.60;1.00;;;;;;6155704;23;20297;-74
2023/03/03 12:36:01;;;;;;;48.78;27.52;;;5.50;1.00;;;;;;6156251;23;20634;-74
2023/03/03 12:38:39;;;;;;;46.25;28.23;;;5.40;1.00;;;;;;6157554;23;20219;-75
2023/03/03 12:41:11;;;;;;;39.92;25.17;;;5.70;1.00;;;;;;6161318;23;20218;-76
2023/03/03 12:43:51;;;;;;;39.20;23.77;;;5.70;1.00;;;;;;6159724;23;20274;-76
2023/03/03 12:46:25;;;;;;;33.22;20.65;;;5.90;1.00;;;;;;6160466;23;20613;-76
2023/03/03 12:48:52;;;;;;;38.00;19.85;;;6.00;1.00;;;;;;6161410;23;20273;-76
2023/03/03 12:51:33;;;;;;;39.72;20.88;;;6.10;1.00;;;;;;6160326;23;20223;-75
2023/03/03 12:54:20;;;;;;;28.35;17.10;;;6.20;1.00;;;;;;6160884;23;20215;-75
2023/03/03 12:56:51;;;;;;;32.05;19.08;;;5.90;1.00;;;;;;6140978;23;20296;-74
2023/03/03 12:59:22;;;;;;;33.33;17.88;;;5.90;1.00;;;;;;6141883;23;20218;-75
2023/03/03 13:02:04;;;;;;;29.33;17.77;;;5.70;1.00;;;;;;6158383;23;20593;-74
2023/03/03 13:04:37;;;;;;;30.15;18.73;;;5.60;1.00;;;;;;6117058;23;20912;-75
2023/03/03 13:07:15;;;;;;;30.88;19.25;;;5.70;1.00;;;;;;6160778;23;20214;-75
2023/03/03 13:10:07;;;;;;;33.42;17.48;;;5.70;1.00;;;;;;6161921;23;20219;-75
2023/03/03 13:12:44;;;;;;;30.55;18.13;;;5.80;1.00;;;;;;6143819;23;20298;-76
2023/03/03 13:15:16;;;;;;;36.00;18.60;;;6.00;1.00;;;;;;6139891;23;20246;-76
2023/03/03 13:17:55;;;;;;;32.15;20.67;;;6.20;1.00;;;;;;6160550;23;20223;-75
2023/03/03 13:20:34;;;;;;;35.92;22.08;;;6.40;1.00;;;;;;6162550;23;20218;-74